New Auburn, WI (54757)

1:22 PM CDT on August 28, 2016 (GMT -0500)
Chetek Municipal Southworth A | | Change Station

Elev 1053 ft 45.31 °N, 91.64 °W | Updated 7 minutes ago

Overcast
Overcast
70 °F
Feels Like 70 °F
N
5
Wind Variable Wind from SSE

Today
High -- | Low -- °F
--% Chance of Precip.
Yesterday
High -- | Low -- °F
Precip. -- in
Pressure 30.20 in
Visibility 10.0 miles
Clouds Mostly Cloudy 1000 ft
Overcast 1500 ft
Dew Point 67 °F
Humidity 87%
Rainfall 0.02 in
Snow Depth Not available.
6:23 AM 7:49 PM
Waning Crescent, 14% visible
METAR KY23 281815Z AUTO 16004KT 10SM BKN010 OVC015 21/19 A3020 RMK AO2 T02140192
Pressure 30.20 in
Visibility 10.0 miles
Clouds Mostly Cloudy 1000 ft
Overcast 1500 ft
Dew Point 67 °F
Humidity 87%
Rainfall 0.02 in
Snow Depth Not available.
6:23 AM 7:49 PM
Waning Crescent, 14% visible
METAR KY23 281815Z AUTO 16004KT 10SM BKN010 OVC015 21/19 A3020 RMK AO2 T02140192

10-Day Weather Forecast

Almanac

Astronomy

Aug. 28, 2016 Rise Set
Actual Time
Civil Twilight
Nautical Twilight
Astronomical Twilight
Moon
Length of Visible Light
Length of Day
Tomorrow will be .
, % of the Moon is Illuminated

Today's Extremes

State Highs State Lows

Community

WunderPhotos

Upload Photos

1,935,644 photos uploaded!

WunderBlog® & News

Nearby

Air Quality

  Air Quality AQ Index Pollutant
Not available.

Snow Depth

Station Depth Elevation

Earthquake Activity

City Distance Mag. Time & Date
Minimum magnitude displayed is 2.5.

Coastal Water Temperatures

Place Temperature

Stations

Nearby Weather Stations

Station Location Temp. Windchill Dew Point Humidity Wind Precip. Elev Updated Type
                   

Watches & Warnings

There are currently no watches in effect.